Timber Mountain, Nevada Weather observations

Data are for 10 minute period ending at time listed.
 Day   Time   Solar   Ave.   Ave.  Ave.  Vector  Max.   Baro.   Total    
  of    of     Rad.   Air    Rel.  Wind   Wind   Wind  Press.  Precip.   
Year   Day            Temp.  Hum.  Speed  Dir.   Gust                    
2017   (PST)  Kw/m2    F      %     mph   deg.    mph    mb.     in.     
-------------------------------------------------------------------------
  35   21:00   0.00   35.4    82    3.8   119     8.3   810.8    0.00 
  35   22:00   0.00   35.0    84    2.8   104     6.6   811.1    0.00 
  35   23:00   0.00   34.3    87    2.9    98     6.0   811.3    0.00 
  36    0:00   0.00   34.0    88    3.8   108     6.6   811.2    0.00 
  36    1:00   0.00   32.2    91    3.1   101     5.3   811.0    0.00 
  36    2:00   0.00   31.7    91    3.7   104     5.6   810.9    0.00 
  36    3:00   0.00   31.7    91    4.3   102     7.7   810.5    0.00 
  36    4:00   0.00   31.5    91    4.2   108     8.0   810.0    0.00 
  36    5:00   0.00   31.7    91    5.1   105     8.2   809.7    0.00 
  36    6:00   0.00   32.6    88    3.4   103     7.7   809.7    0.00 
  36    7:00   0.00   33.9    87    5.5   121    12.1   809.9    0.00 
  36    8:00   0.05   36.8    81    6.5   105    15.1   810.1    0.00 
  36    9:00   0.22   40.6    73    4.2   117    11.5   810.6    0.00 
  36   10:00   0.38   43.4    64    6.4   112    15.8   810.8    0.00 
  36   11:00   0.55   44.4    58    9.7   130    19.4   810.6    0.00 
  36   12:00   0.56   45.5    53   11.9   142    22.0   809.8    0.00 
  36   13:00   0.32   43.8    53   14.0   138    22.4   808.2    0.00 
  36   14:00   0.27   43.8    54   13.4   135    22.8   807.3    0.00 
  36   15:00   0.22   43.0    60   12.4   137    24.6   807.1    0.00 
  36   16:00   0.11   41.8    58   18.6   144    31.1   806.8    0.00 
  36   17:00   0.04   40.8    63   13.6   143    27.0   806.8    0.00 
  36   18:00   0.00   39.7    69   10.8   144    25.9   806.3    0.00 
  36   19:00   0.00   39.8    65   16.0   147    33.8   806.1    0.00 
  36   20:00   0.00   38.7    69   18.4   146    30.5   805.7    0.00 

Return to Timber Mountain graphs page.


Western Regional Climate Center,wrcc@dri.edu